Time;durP1;ratioP1;P1;durP2;ratioP2;P2;SDS_P1;SDS_P2;PMS_P1;PMS_P2;Temp;Humidity;BMP_temperature;BMP_pressure;BME280_temperature;BME280_humidity;BME280_pressure;Samples;Min_cycle;Max_cycle;Signal;HPM_P1;HPM_P2
2022/12/30 00:03:16;;;;;;;6.73;2.30;;;7.80;99.90;;;;;;10470177;28;20217;-68
2022/12/30 00:35:00;;;;;;;7.77;2.27;;;7.50;99.90;;;;;;10477991;28;20698;-69
2022/12/30 00:40:01;;;;;;;8.87;2.60;;;7.80;99.90;;;;;;10474579;28;20214;-69
2022/12/30 00:45:02;;;;;;;7.53;2.70;;;7.90;99.90;;;;;;10467720;28;20250;-69
2022/12/30 01:00:42;;;;;;;9.67;2.60;;;7.60;99.90;;;;;;10470036;28;20231;-69
2022/12/30 01:05:42;;;;;;;10.93;3.20;;;7.40;99.90;;;;;;10486353;28;20310;-70
2022/12/30 01:10:43;;;;;;;9.77;2.60;;;7.40;99.90;;;;;;10486686;28;20244;-69
2022/12/30 01:15:43;;;;;;;10.10;2.70;;;7.30;99.90;;;;;;10499731;28;20228;-70
2022/12/30 01:20:44;;;;;;;5.10;2.33;;;7.20;99.90;;;;;;10468224;28;20313;-70
2022/12/30 01:25:44;;;;;;;8.90;2.70;;;7.20;99.90;;;;;;10478912;28;20230;-69
2022/12/30 01:30:45;;;;;;;10.87;2.90;;;7.20;99.90;;;;;;10459453;28;20610;-69
2022/12/30 01:35:45;;;;;;;8.03;2.80;;;7.20;99.90;;;;;;10467421;28;20227;-69
2022/12/30 01:40:46;;;;;;;7.93;2.80;;;7.10;99.90;;;;;;10475953;28;20273;-70
2022/12/30 01:45:51;;;;;;;8.10;2.40;;;7.00;99.90;;;;;;10466995;28;20214;-69
2022/12/30 01:50:54;;;;;;;8.03;2.90;;;6.90;99.90;;;;;;10477059;28;20230;-70
2022/12/30 01:56:05;;;;;;;9.57;2.80;;;6.90;99.90;;;;;;10478521;28;20238;-69
2022/12/30 02:01:05;;;;;;;7.77;2.93;;;6.90;99.90;;;;;;10477515;28;20231;-69
2022/12/30 02:06:07;;;;;;;8.07;2.80;;;6.80;99.90;;;;;;10477031;28;20215;-69
2022/12/30 02:11:07;;;;;;;5.47;2.40;;;6.80;99.90;;;;;;10479846;28;20655;-69
2022/12/30 02:16:28;;;;;;;5.50;2.70;;;6.80;99.90;;;;;;10471639;28;20310;-69
2022/12/30 02:21:45;;;;;;;15.23;3.63;;;6.70;99.90;;;;;;10462430;28;20215;-68
2022/12/30 02:27:13;;;;;;;9.10;2.60;;;6.60;99.90;;;;;;10470330;28;20219;-68
2022/12/30 02:32:40;;;;;;;9.90;2.67;;;6.60;99.90;;;;;;10476754;28;20219;-68
2022/12/30 02:37:50;;;;;;;12.37;2.87;;;6.60;99.90;;;;;;10477500;28;20225;-69
2022/12/30 02:48:29;;;;;;;10.43;2.33;;;6.50;99.90;;;;;;10472334;28;20299;-68
2022/12/30 02:53:34;;;;;;;5.97;2.50;;;6.50;99.90;;;;;;10475125;28;20246;-69
2022/12/30 02:58:38;;;;;;;9.93;3.60;;;6.50;99.90;;;;;;10470104;28;20224;-68
2022/12/30 03:03:57;;;;;;;13.23;2.93;;;6.50;99.90;;;;;;10475813;28;20221;-68
2022/12/30 03:09:12;;;;;;;10.13;2.63;;;6.50;99.90;;;;;;10476649;28;20599;-69
2022/12/30 03:14:41;;;;;;;10.40;2.67;;;6.50;99.90;;;;;;10471601;28;20261;-70
2022/12/30 03:19:44;;;;;;;8.13;2.63;;;6.50;99.90;;;;;;10452297;28;20243;-68
2022/12/30 03:30:04;;;;;;;12.43;2.90;;;6.50;99.90;;;;;;10469777;28;20306;-68
2022/12/30 03:35:05;;;;;;;12.73;3.00;;;6.50;99.90;;;;;;10466568;28;20226;-68
2022/12/30 03:40:19;;;;;;;9.37;2.80;;;6.40;99.90;;;;;;10471676;28;20212;-69
2022/12/30 03:45:21;;;;;;;11.33;2.67;;;6.40;99.90;;;;;;10471749;28;20191;-68
2022/12/30 03:50:27;;;;;;;13.53;2.80;;;6.40;99.90;;;;;;10469156;28;20203;-68
2022/12/30 03:55:28;;;;;;;10.80;2.60;;;6.50;99.90;;;;;;10472225;28;20227;-68
2022/12/30 04:00:28;;;;;;;14.93;2.73;;;6.60;99.90;;;;;;10468148;28;20311;-69
2022/12/30 04:05:29;;;;;;;11.57;2.50;;;6.60;99.90;;;;;;10454222;28;20234;-69
2022/12/30 04:10:29;;;;;;;10.60;2.53;;;6.60;99.90;;;;;;10450117;28;20216;-69
2022/12/30 04:15:30;;;;;;;7.80;2.20;;;6.70;99.90;;;;;;10454617;28;20253;-69
2022/12/30 04:20:33;;;;;;;13.53;2.90;;;6.80;99.90;;;;;;10476115;28;20432;-69
2022/12/30 04:25:34;;;;;;;10.17;2.63;;;7.00;99.90;;;;;;10454666;28;20247;-69
2022/12/30 04:30:35;;;;;;;13.10;2.70;;;7.20;99.90;;;;;;10450022;28;20239;-68
2022/12/30 04:35:35;;;;;;;9.60;2.53;;;7.40;99.90;;;;;;10473460;28;20257;-69
2022/12/30 04:40:36;;;;;;;9.90;2.53;;;7.50;99.90;;;;;;10462481;28;20222;-70
2022/12/30 04:45:36;;;;;;;12.70;2.37;;;7.60;99.90;;;;;;10468286;28;20220;-69
2022/12/30 04:50:41;;;;;;;11.13;2.40;;;7.70;99.90;;;;;;10475273;28;20314;-70
2022/12/30 04:55:42;;;;;;;8.83;2.23;;;7.80;99.90;;;;;;10454666;28;20643;-69
2022/12/30 05:00:42;;;;;;;11.27;2.37;;;7.90;99.90;;;;;;10465466;28;20307;-69
2022/12/30 05:05:43;;;;;;;8.20;2.67;;;7.90;99.90;;;;;;10454654;28;20215;-69
2022/12/30 05:10:43;;;;;;;11.07;2.50;;;7.90;99.90;;;;;;10464743;28;20343;-69
2022/12/30 05:15:44;;;;;;;9.10;2.30;;;8.00;99.90;;;;;;10472638;28;20224;-69
2022/12/30 05:20:45;;;;;;;7.40;2.60;;;7.90;99.90;;;;;;10472077;28;20226;-69
2022/12/30 05:31:06;;;;;;;9.93;3.10;;;8.00;99.90;;;;;;10475248;28;20689;-69
2022/12/30 05:36:08;;;;;;;10.30;2.43;;;8.00;99.90;;;;;;10469872;28;20229;-69
2022/12/30 05:41:10;;;;;;;11.73;3.03;;;8.00;99.90;;;;;;10467592;28;20248;-69
2022/12/30 05:46:10;;;;;;;9.13;3.10;;;8.00;99.90;;;;;;10451510;28;20281;-69
2022/12/30 05:51:11;;;;;;;9.83;2.77;;;8.00;99.90;;;;;;10475277;28;20285;-69
2022/12/30 05:56:12;;;;;;;8.60;2.53;;;8.00;99.90;;;;;;10474982;28;20263;-69
2022/12/30 06:01:13;;;;;;;9.93;3.00;;;7.90;99.90;;;;;;10475514;28;20745;-70
2022/12/30 06:06:13;;;;;;;9.80;3.00;;;7.90;99.90;;;;;;10476198;28;20222;-69
2022/12/30 06:11:14;;;;;;;7.13;2.80;;;7.90;99.90;;;;;;10457597;28;20249;-70
2022/12/30 06:16:14;;;;;;;9.57;2.70;;;7.90;99.90;;;;;;10457347;28;20290;-69
2022/12/30 06:21:15;;;;;;;8.70;2.57;;;7.80;99.90;;;;;;10480295;28;20312;-68
2022/12/30 06:26:16;;;;;;;12.03;2.80;;;7.80;99.90;;;;;;10474493;28;20248;-70
2022/12/30 06:31:16;;;;;;;11.07;2.90;;;7.80;99.90;;;;;;10472722;28;20269;-69
2022/12/30 06:36:17;;;;;;;7.93;2.37;;;7.80;99.90;;;;;;10474428;28;20238;-68
2022/12/30 06:41:17;;;;;;;10.13;3.10;;;7.70;99.90;;;;;;10462600;28;20212;-68
2022/12/30 06:46:18;;;;;;;10.70;2.83;;;7.70;99.90;;;;;;10481347;28;20222;-69
2022/12/30 06:51:19;;;;;;;9.37;3.00;;;7.70;99.90;;;;;;10455064;28;20235;-69
2022/12/30 06:56:19;;;;;;;9.07;2.80;;;7.70;99.90;;;;;;10459592;28;20262;-68
2022/12/30 07:01:21;;;;;;;13.87;3.10;;;7.60;99.90;;;;;;10473353;28;20238;-69
2022/12/30 07:06:22;;;;;;;11.17;2.97;;;7.60;99.90;;;;;;10472455;28;20228;-70
2022/12/30 07:11:22;;;;;;;11.30;3.40;;;7.60;99.90;;;;;;10473741;28;20289;-69
2022/12/30 07:16:24;;;;;;;10.23;4.00;;;7.60;99.90;;;;;;10475322;28;20316;-68
2022/12/30 07:21:25;;;;;;;12.43;3.43;;;7.50;99.90;;;;;;10478222;28;20211;-68
2022/12/30 07:26:25;;;;;;;9.50;2.97;;;7.50;99.90;;;;;;10461494;28;20243;-69
2022/12/30 07:31:26;;;;;;;11.93;3.73;;;7.40;99.90;;;;;;10473696;28;20311;-69
2022/12/30 07:36:27;;;;;;;8.30;3.13;;;7.30;99.90;;;;;;10491559;28;20214;-68
2022/12/30 07:41:28;;;;;;;8.10;3.43;;;7.40;99.90;;;;;;10469714;28;20390;-69
2022/12/30 07:46:28;;;;;;;9.63;3.20;;;7.50;99.90;;;;;;10455261;28;20216;-68
2022/12/30 07:51:29;;;;;;;7.00;3.00;;;7.70;99.90;;;;;;10451400;28;20316;-69
2022/12/30 07:56:29;;;;;;;6.87;3.07;;;7.70;99.90;;;;;;10455086;28;20219;-69
2022/12/30 08:01:30;;;;;;;9.20;2.80;;;7.70;99.90;;;;;;10467399;28;20270;-69
2022/12/30 08:06:31;;;;;;;8.93;2.30;;;7.90;99.90;;;;;;10472915;28;20246;-69
2022/12/30 08:11:32;;;;;;;11.17;2.17;;;8.10;99.90;;;;;;10449823;28;20217;-68
2022/12/30 08:16:32;;;;;;;6.40;2.30;;;8.30;99.90;;;;;;10472502;28;20271;-68
2022/12/30 08:21:33;;;;;;;9.77;2.20;;;8.50;99.90;;;;;;10473687;28;20688;-69
2022/12/30 08:26:34;;;;;;;5.13;1.93;;;8.80;99.90;;;;;;10474361;28;20245;-70
2022/12/30 08:31:34;;;;;;;4.57;2.13;;;9.10;99.90;;;;;;10449971;28;20579;-70
2022/12/30 08:36:35;;;;;;;2.93;2.30;;;9.40;99.90;;;;;;10472802;28;20226;-69
2022/12/30 08:41:42;;;;;;;4.07;2.20;;;9.50;99.90;;;;;;10473488;28;20214;-69
2022/12/30 08:46:43;;;;;;;5.43;2.87;;;9.70;99.90;;;;;;10454998;28;20306;-69
2022/12/30 08:51:44;;;;;;;3.27;1.93;;;9.90;99.90;;;;;;10472960;28;20226;-69
2022/12/30 08:56:47;;;;;;;3.83;2.30;;;10.80;99.90;;;;;;10478585;28;20227;-69
2022/12/30 09:01:47;;;;;;;3.73;2.03;;;11.90;99.90;;;;;;10470692;28;20213;-70
2022/12/30 09:06:48;;;;;;;2.00;1.60;;;12.80;99.90;;;;;;10471750;28;20309;-70
2022/12/30 09:11:49;;;;;;;3.00;1.70;;;13.30;99.90;;;;;;10465232;28;20223;-69
2022/12/30 09:16:49;;;;;;;3.03;1.70;;;13.80;99.90;;;;;;10465473;28;20694;-69
2022/12/30 09:21:51;;;;;;;2.83;1.70;;;14.10;99.90;;;;;;10474126;28;20214;-69
2022/12/30 09:26:51;;;;;;;3.90;1.50;;;14.00;99.90;;;;;;10474707;28;20218;-69
2022/12/30 09:31:52;;;;;;;5.40;1.57;;;13.80;99.90;;;;;;10473813;28;20226;-70
2022/12/30 09:36:52;;;;;;;3.10;2.23;;;14.40;99.90;;;;;;10483151;28;20256;-69
2022/12/30 09:47:41;;;;;;;4.33;1.10;;;15.60;99.90;;;;;;10472826;28;20220;-69
2022/12/30 09:52:51;;;;;;;1.53;0.70;;;16.30;99.90;;;;;;10480131;28;20328;-69
2022/12/30 09:57:56;;;;;;;4.83;1.03;;;17.60;99.90;;;;;;10472793;28;20314;-71
2022/12/30 10:03:16;;;;;;;1.93;1.00;;;20.20;99.90;;;;;;10462494;28;20275;-70
2022/12/30 10:08:25;;;;;;;1.37;1.00;;;21.40;92.00;;;;;;10480180;28;20716;-70
2022/12/30 10:13:48;;;;;;;3.10;0.90;;;21.10;88.80;;;;;;10473139;28;20281;-69
2022/12/30 10:19:05;;;;;;;2.27;0.60;;;21.80;81.10;;;;;;10478677;28;20691;-70
2022/12/30 10:24:11;;;;;;;1.97;0.80;;;21.60;79.10;;;;;;10457576;28;20276;-70
2022/12/30 10:29:35;;;;;;;1.93;0.80;;;21.30;79.80;;;;;;10473573;28;20308;-70
2022/12/30 10:34:37;;;;;;;2.50;0.80;;;20.90;78.40;;;;;;10476502;28;20219;-69
2022/12/30 10:39:44;;;;;;;4.13;0.80;;;20.00;80.80;;;;;;10477057;28;20227;-69
2022/12/30 10:45:13;;;;;;;4.00;1.00;;;18.80;85.80;;;;;;10469951;28;20219;-69
2022/12/30 10:50:16;;;;;;;3.70;0.80;;;17.40;90.40;;;;;;10469391;28;20238;-69
2022/12/30 10:55:20;;;;;;;3.30;1.10;;;16.40;92.60;;;;;;10484256;28;20789;-68
2022/12/30 11:00:21;;;;;;;2.73;0.60;;;15.40;95.50;;;;;;10477198;28;20208;-68
2022/12/30 11:05:27;;;;;;;2.97;1.00;;;15.00;97.20;;;;;;10472253;28;20194;-69
2022/12/30 11:10:27;;;;;;;3.90;1.50;;;14.80;98.60;;;;;;10473738;28;20236;-69
2022/12/30 11:15:28;;;;;;;3.27;1.03;;;15.40;98.20;;;;;;10470350;28;20221;-68
2022/12/30 11:20:38;;;;;;;2.87;1.00;;;15.60;97.30;;;;;;10473592;28;20577;-69
2022/12/30 11:25:44;;;;;;;2.40;1.00;;;15.00;98.20;;;;;;10466737;28;20564;-69
2022/12/30 11:30:51;;;;;;;1.57;0.73;;;14.10;99.90;;;;;;10492261;28;20230;-70
2022/12/30 11:35:52;;;;;;;6.53;0.73;;;13.40;99.90;;;;;;10467737;28;20273;-70
2022/12/30 11:40:53;;;;;;;1.43;0.60;;;13.00;99.90;;;;;;10465633;28;20226;-69
2022/12/30 11:45:59;;;;;;;5.03;1.07;;;12.60;99.90;;;;;;10474436;28;20567;-68
2022/12/30 11:51:04;;;;;;;1.63;0.90;;;12.20;99.90;;;;;;10468874;28;20247;-69
2022/12/30 11:56:05;;;;;;;1.60;0.77;;;12.00;99.90;;;;;;10472202;28;20310;-70
2022/12/30 12:01:09;;;;;;;2.63;0.80;;;12.00;99.90;;;;;;10468763;28;20303;-70
2022/12/30 12:06:10;;;;;;;5.30;1.10;;;12.00;99.90;;;;;;10453055;28;20219;-69
2022/12/30 12:11:19;;;;;;;2.70;1.03;;;11.90;99.90;;;;;;10456318;28;20230;-69
2022/12/30 12:16:57;;;;;;;6.43;1.13;;;11.80;99.90;;;;;;10452540;28;20268;-69
2022/12/30 12:22:02;;;;;;;2.00;0.80;;;11.70;99.90;;;;;;10473015;28;20203;-70
2022/12/30 12:27:09;;;;;;;3.07;0.80;;;11.50;99.90;;;;;;10471911;28;20222;-69
2022/12/30 12:32:28;;;;;;;2.37;0.80;;;11.30;99.90;;;;;;10464489;28;20230;-68
2022/12/30 12:37:44;;;;;;;2.93;1.00;;;11.10;99.90;;;;;;10484845;28;20242;-69
2022/12/30 12:43:15;;;;;;;2.67;0.83;;;11.20;99.90;;;;;;10447136;28;20245;-69
2022/12/30 12:48:15;;;;;;;5.70;1.63;;;11.20;99.90;;;;;;10468778;28;20321;-68
2022/12/30 12:53:42;;;;;;;2.53;1.17;;;11.20;99.90;;;;;;10450618;28;20867;-69
2022/12/30 12:59:19;;;;;;;2.93;0.83;;;11.10;99.90;;;;;;10453493;28;20313;-69
2022/12/30 13:04:20;;;;;;;5.53;1.13;;;11.20;99.90;;;;;;10474326;28;20225;-68
2022/12/30 13:09:36;;;;;;;4.33;1.03;;;11.10;99.90;;;;;;10459012;28;20218;-69
2022/12/30 13:15:09;;;;;;;2.63;0.93;;;11.10;99.90;;;;;;10465615;28;20698;-69
2022/12/30 13:20:27;;;;;;;2.83;0.80;;;11.00;99.90;;;;;;10457451;28;20676;-68
2022/12/30 13:25:44;;;;;;;4.40;1.60;;;11.00;99.90;;;;;;10468573;28;20222;-68
2022/12/30 13:31:01;;;;;;;4.50;1.00;;;11.00;99.90;;;;;;10471374;28;20233;-70
2022/12/30 13:36:26;;;;;;;2.23;0.70;;;11.00;99.90;;;;;;10475057;28;20300;-68
2022/12/30 13:41:41;;;;;;;1.20;0.80;;;10.90;99.90;;;;;;10466048;28;20223;-69
2022/12/30 13:46:48;;;;;;;2.30;0.60;;;11.00;99.90;;;;;;10471442;28;20553;-69
2022/12/30 13:52:02;;;;;;;2.17;0.50;;;11.00;99.90;;;;;;10463563;28;20334;-69
2022/12/30 13:57:03;;;;;;;1.60;0.63;;;11.00;99.90;;;;;;10469589;28;20269;-70
2022/12/30 14:02:23;;;;;;;1.87;0.70;;;10.90;99.90;;;;;;10463304;28;20241;-68
2022/12/30 14:07:46;;;;;;;1.13;0.53;;;10.90;99.90;;;;;;10468329;28;20229;-70
2022/12/30 14:13:14;;;;;;;2.33;0.80;;;10.90;99.90;;;;;;10470528;28;20230;-69
2022/12/30 14:18:23;;;;;;;2.77;0.60;;;10.80;99.90;;;;;;10474385;28;20313;-69
2022/12/30 14:23:36;;;;;;;3.17;0.73;;;10.80;99.90;;;;;;10454916;28;20574;-70
2022/12/30 14:28:43;;;;;;;2.77;0.73;;;10.80;99.90;;;;;;10476969;28;20218;-69
2022/12/30 14:33:48;;;;;;;4.60;1.90;;;10.80;99.90;;;;;;10477582;28;20229;-70
2022/12/30 14:38:48;;;;;;;3.00;0.90;;;10.90;99.90;;;;;;10469796;28;20247;-68
2022/12/30 14:44:00;;;;;;;2.40;0.80;;;10.80;99.90;;;;;;10477534;28;20222;-69
2022/12/30 14:49:04;;;;;;;0.80;0.70;;;10.70;99.90;;;;;;10470783;28;20219;-68
2022/12/30 14:54:05;;;;;;;3.23;0.83;;;10.50;99.90;;;;;;10477144;28;20683;-68
2022/12/30 14:59:06;;;;;;;1.20;0.70;;;10.20;99.90;;;;;;10474098;28;20254;-70
2022/12/30 15:04:16;;;;;;;3.17;0.73;;;9.80;99.90;;;;;;10478636;28;20246;-68
2022/12/30 15:09:23;;;;;;;1.17;0.80;;;9.60;99.90;;;;;;10486467;28;20245;-69
2022/12/30 15:14:23;;;;;;;4.00;1.60;;;9.40;99.90;;;;;;10476335;28;20256;-69
2022/12/30 15:19:25;;;;;;;2.73;1.20;;;9.30;99.90;;;;;;10470432;28;20268;-68
2022/12/30 15:24:25;;;;;;;4.47;1.33;;;9.10;99.90;;;;;;10473062;28;20217;-69
2022/12/30 15:29:32;;;;;;;4.77;1.43;;;9.00;99.90;;;;;;10460858;28;20218;-69
2022/12/30 15:34:33;;;;;;;1.83;1.13;;;9.00;99.90;;;;;;10467503;28;20652;-69
2022/12/30 15:39:44;;;;;;;2.97;1.20;;;9.10;99.90;;;;;;10478444;28;20229;-69
2022/12/30 15:44:45;;;;;;;1.73;1.17;;;9.10;99.90;;;;;;10475341;28;20219;-69
2022/12/30 15:49:57;;;;;;;2.00;1.07;;;9.30;99.90;;;;;;10467086;28;20222;-69
2022/12/30 15:55:01;;;;;;;1.73;1.30;;;9.40;99.90;;;;;;10451016;28;20843;-69
2022/12/30 16:00:23;;;;;;;2.43;0.83;;;9.40;99.90;;;;;;10466513;28;20230;-69
2022/12/30 16:05:30;;;;;;;1.53;1.03;;;9.50;99.90;;;;;;10469973;28;20215;-68
2022/12/30 16:10:31;;;;;;;2.07;1.13;;;9.70;99.90;;;;;;10450576;28;20220;-68
2022/12/30 16:15:37;;;;;;;1.73;1.10;;;9.80;99.90;;;;;;10472040;28;20700;-70
2022/12/30 16:20:50;;;;;;;2.27;1.10;;;10.10;99.90;;;;;;10468560;28;20227;-69
2022/12/30 16:25:53;;;;;;;1.70;1.23;;;10.20;99.90;;;;;;10479188;28;20722;-69
2022/12/30 16:30:54;;;;;;;1.23;0.87;;;10.30;99.90;;;;;;10471488;28;20298;-69
2022/12/30 16:36:03;;;;;;;1.77;1.20;;;10.30;99.90;;;;;;10474180;28;20305;-69
2022/12/30 16:41:06;;;;;;;2.13;1.23;;;10.30;99.90;;;;;;10470366;28;20306;-68
2022/12/30 16:46:18;;;;;;;1.20;1.10;;;10.20;99.90;;;;;;10464795;28;20252;-69
2022/12/30 16:51:20;;;;;;;4.87;1.70;;;10.30;99.90;;;;;;10468668;28;20227;-70
2022/12/30 16:56:20;;;;;;;2.67;1.60;;;10.10;99.90;;;;;;10450348;28;20234;-68
2022/12/30 17:01:26;;;;;;;3.27;1.43;;;9.90;99.90;;;;;;10451358;28;20754;-70
2022/12/30 17:06:26;;;;;;;3.17;1.70;;;9.80;99.90;;;;;;10480450;28;20218;-70
2022/12/30 17:11:29;;;;;;;4.63;2.10;;;9.70;99.90;;;;;;10476211;28;20751;-68
2022/12/30 17:16:32;;;;;;;2.70;2.00;;;9.70;99.90;;;;;;10464509;28;20289;-69
2022/12/30 17:21:42;;;;;;;5.83;2.03;;;9.70;99.90;;;;;;10466496;28;20249;-69
2022/12/30 17:26:46;;;;;;;3.97;1.90;;;9.70;99.90;;;;;;10480013;28;20229;-68
2022/12/30 17:31:48;;;;;;;3.00;2.53;;;9.70;99.90;;;;;;10472806;28;20253;-68
2022/12/30 17:36:49;;;;;;;2.57;2.37;;;9.80;99.90;;;;;;10485534;28;20250;-70
2022/12/30 17:41:50;;;;;;;3.33;2.80;;;9.90;99.90;;;;;;10455913;28;20245;-69
2022/12/30 17:46:50;;;;;;;2.63;2.23;;;9.90;99.90;;;;;;10479394;28;20582;-69
2022/12/30 17:51:51;;;;;;;2.80;2.30;;;10.00;99.90;;;;;;10453922;28;20800;-69
2022/12/30 17:56:52;;;;;;;5.20;2.63;;;10.00;99.90;;;;;;10478841;28;20223;-69
2022/12/30 18:01:52;;;;;;;4.57;2.63;;;10.10;99.90;;;;;;10479537;28;20218;-69
2022/12/30 18:06:53;;;;;;;3.40;2.80;;;10.10;99.90;;;;;;10471554;28;20247;-68
2022/12/30 18:11:53;;;;;;;3.70;2.70;;;10.10;99.90;;;;;;10478281;28;20267;-69
2022/12/30 18:16:54;;;;;;;5.23;2.83;;;10.10;99.90;;;;;;10453489;28;20247;-69
2022/12/30 18:21:54;;;;;;;7.70;3.83;;;10.10;99.90;;;;;;10478474;28;20215;-69
2022/12/30 18:26:55;;;;;;;3.63;3.17;;;10.00;99.90;;;;;;10484764;28;20320;-68
2022/12/30 18:31:55;;;;;;;4.50;3.03;;;10.00;99.90;;;;;;10478041;28;20310;-70
2022/12/30 18:36:57;;;;;;;4.30;3.50;;;10.10;99.90;;;;;;10478236;28;20309;-68
2022/12/30 18:41:58;;;;;;;4.47;3.43;;;10.10;99.90;;;;;;10458507;28;20221;-71
2022/12/30 18:46:59;;;;;;;4.33;3.70;;;10.10;99.90;;;;;;10470850;28;20220;-68
2022/12/30 18:51:59;;;;;;;4.67;4.10;;;10.10;99.90;;;;;;10478073;28;20227;-69
2022/12/30 18:57:01;;;;;;;5.43;4.20;;;10.20;99.90;;;;;;10474994;28;20338;-70
2022/12/30 19:02:01;;;;;;;4.60;4.10;;;10.20;99.90;;;;;;10452997;28;20220;-69
2022/12/30 19:07:05;;;;;;;4.67;4.00;;;10.20;99.90;;;;;;10475013;28;20214;-70
2022/12/30 19:12:06;;;;;;;6.13;4.30;;;10.20;99.90;;;;;;10479084;28;20219;-69
2022/12/30 19:17:06;;;;;;;4.70;4.30;;;10.20;99.90;;;;;;10475507;28;20214;-69
2022/12/30 19:22:07;;;;;;;5.10;4.53;;;10.30;99.90;;;;;;10460954;28;20227;-70
2022/12/30 19:27:07;;;;;;;6.00;4.77;;;10.40;99.90;;;;;;10455241;28;20233;-70
2022/12/30 19:32:08;;;;;;;5.57;4.60;;;10.30;99.90;;;;;;10467222;28;20294;-69
2022/12/30 19:37:09;;;;;;;5.03;4.47;;;10.40;99.90;;;;;;10478815;28;20876;-69
2022/12/30 19:42:09;;;;;;;5.17;4.40;;;10.40;99.90;;;;;;10455192;28;20222;-70
2022/12/30 19:47:10;;;;;;;4.50;4.10;;;10.50;99.90;;;;;;10486472;28;20634;-70
2022/12/30 19:52:10;;;;;;;5.30;4.77;;;10.50;99.90;;;;;;10472415;28;20265;-69
2022/12/30 19:57:11;;;;;;;5.60;4.87;;;10.50;99.90;;;;;;10452338;28;20625;-69
2022/12/30 20:02:13;;;;;;;5.00;4.50;;;10.50;99.90;;;;;;10471976;28;20211;-70
2022/12/30 20:07:14;;;;;;;4.73;4.30;;;10.50;99.90;;;;;;10468785;28;20222;-70
2022/12/30 20:12:14;;;;;;;5.10;4.60;;;10.60;99.90;;;;;;10466893;28;20535;-69
2022/12/30 20:17:15;;;;;;;4.60;4.00;;;10.60;99.90;;;;;;10475692;28;20210;-69
2022/12/30 20:22:15;;;;;;;5.07;4.40;;;10.70;99.90;;;;;;10479032;28;20215;-68
2022/12/30 20:27:16;;;;;;;4.97;4.47;;;10.70;99.90;;;;;;10473487;28;20298;-70
2022/12/30 20:32:17;;;;;;;4.77;4.33;;;10.80;99.90;;;;;;10461544;28;20229;-69
2022/12/30 20:37:17;;;;;;;5.13;3.80;;;10.80;99.90;;;;;;10470245;28;20250;-69
2022/12/30 20:42:18;;;;;;;4.10;3.70;;;10.80;99.90;;;;;;10469931;28;20371;-69
2022/12/30 20:47:18;;;;;;;5.10;3.77;;;10.90;99.90;;;;;;10464623;28;20572;-70
2022/12/30 20:52:19;;;;;;;3.57;3.17;;;10.90;99.90;;;;;;10469406;28;20235;-70
2022/12/30 20:57:20;;;;;;;3.90;3.50;;;11.00;99.90;;;;;;10451645;28;20429;-69
2022/12/30 21:02:20;;;;;;;3.43;2.77;;;11.10;99.90;;;;;;10468967;28;20227;-69
2022/12/30 21:07:21;;;;;;;3.93;2.87;;;11.20;99.90;;;;;;10475846;28;20281;-70
2022/12/30 21:12:21;;;;;;;4.17;3.10;;;11.20;99.90;;;;;;10464637;28;20639;-68
2022/12/30 21:17:22;;;;;;;4.00;3.00;;;11.30;99.90;;;;;;10472602;28;20215;-70
2022/12/30 21:22:22;;;;;;;3.23;2.93;;;11.30;99.90;;;;;;10484891;28;20203;-70
2022/12/30 21:27:23;;;;;;;3.10;2.80;;;11.30;99.90;;;;;;10480766;28;20218;-70
2022/12/30 21:32:23;;;;;;;3.17;2.37;;;11.40;99.90;;;;;;10481685;28;20570;-69
2022/12/30 21:37:24;;;;;;;3.43;3.10;;;11.30;99.90;;;;;;10485241;28;20220;-69
2022/12/30 22:03:59;;;;;;;4.33;2.17;;;11.40;99.90;;;;;;10450975;28;20705;-70
2022/12/30 22:09:00;;;;;;;3.23;2.10;;;11.40;99.90;;;;;;10490289;28;20748;-70
2022/12/30 22:14:01;;;;;;;4.67;1.90;;;11.50;99.90;;;;;;10479960;28;20306;-69
2022/12/30 22:19:02;;;;;;;1.90;1.70;;;11.60;99.90;;;;;;10476948;28;20250;-71
2022/12/30 22:24:03;;;;;;;2.10;1.50;;;11.70;99.90;;;;;;10454921;28;20244;-72
2022/12/30 22:29:03;;;;;;;1.83;1.40;;;11.80;99.90;;;;;;10479294;28;20752;-70
2022/12/30 22:34:04;;;;;;;1.47;1.37;;;11.80;99.90;;;;;;10472361;28;20712;-69
2022/12/30 22:39:04;;;;;;;1.60;1.50;;;12.00;99.90;;;;;;10475563;28;20227;-68
2022/12/30 22:44:05;;;;;;;2.47;1.63;;;12.10;99.90;;;;;;10472203;28;20215;-69
2022/12/30 22:49:05;;;;;;;2.63;1.47;;;12.10;99.90;;;;;;10473992;28;20229;-70
2022/12/30 22:54:08;;;;;;;2.73;1.47;;;12.10;99.90;;;;;;10453232;28;20238;-70
2022/12/30 22:59:08;;;;;;;3.10;2.30;;;12.10;99.90;;;;;;10474392;28;20223;-68
2022/12/30 23:04:09;;;;;;;2.33;1.87;;;12.10;99.90;;;;;;10477227;28;20281;-69
2022/12/30 23:09:10;;;;;;;3.93;1.83;;;12.20;99.90;;;;;;10479580;28;20222;-69
2022/12/30 23:19:29;;;;;;;2.87;2.20;;;12.20;99.90;;;;;;10477759;28;20217;-69
2022/12/30 23:29:49;;;;;;;1.70;1.60;;;12.20;99.90;;;;;;10469180;28;20218;-68
2022/12/30 23:34:50;;;;;;;2.80;1.70;;;12.20;99.90;;;;;;10484371;28;20658;-69
2022/12/30 23:39:50;;;;;;;1.53;1.43;;;12.30;99.90;;;;;;10488692;28;20223;-70
2022/12/30 23:44:51;;;;;;;1.40;1.30;;;12.40;99.90;;;;;;10475888;28;20594;-69
2022/12/30 23:49:51;;;;;;;2.50;1.30;;;12.50;99.90;;;;;;10466400;28;20229;-68
2022/12/30 23:54:52;;;;;;;2.17;1.37;;;12.50;99.90;;;;;;10467820;28;20234;-68
2022/12/30 23:59:52;;;;;;;3.03;1.30;;;12.60;99.90;;;;;;10474655;28;20641;-68
